Time;durP1;ratioP1;P1;durP2;ratioP2;P2;SDS_P1;SDS_P2;PMS_P1;PMS_P2;Temp;Humidity;BMP_temperature;BMP_pressure;BME280_temperature;BME280_humidity;BME280_pressure;Samples;Min_cycle;Max_cycle;Signal;HPM_P1;HPM_P2
2022/07/19 00:00:24;;;;;;;6.63;4.17;;;;;;;;;;5032828;28;20430;-68
2022/07/19 00:02:50;;;;;;;4.70;3.60;;;;;;;;;;5033931;28;20449;-66
2022/07/19 00:05:16;;;;;;;4.70;3.83;;;;;;;;;;5035473;28;20620;-66
2022/07/19 00:07:43;;;;;;;8.87;3.97;;;;;;;;;;5034452;28;20176;-67
2022/07/19 00:10:10;;;;;;;5.37;3.93;;;;;;;;;;5035264;28;20202;-66
2022/07/19 00:12:36;;;;;;;7.57;4.10;;;;;;;;;;5034945;28;20572;-68
2022/07/19 00:15:03;;;;;;;5.40;3.83;;;;;;;;;;5033759;28;20183;-67
2022/07/19 00:17:29;;;;;;;4.23;3.80;;;;;;;;;;5035167;28;20283;-66
2022/07/19 00:19:55;;;;;;;5.07;3.60;;;;;;;;;;5035227;28;20171;-68
2022/07/19 00:22:21;;;;;;;6.97;3.30;;;;;;;;;;5035079;28;20194;-66
2022/07/19 00:24:47;;;;;;;5.87;3.83;;;;;;;;;;5033557;28;20186;-67
2022/07/19 00:27:13;;;;;;;5.90;4.37;;;;;;;;;;5033585;28;20190;-68
2022/07/19 00:29:39;;;;;;;5.97;3.53;;;;;;;;;;5033400;28;20222;-66
2022/07/19 00:32:05;;;;;;;5.60;3.93;;;;;;;;;;5034664;28;20175;-66
2022/07/19 00:34:31;;;;;;;9.10;4.00;;;;;;;;;;5034556;28;20663;-66
2022/07/19 00:36:57;;;;;;;8.73;3.93;;;;;;;;;;5034661;28;20206;-66
2022/07/19 00:39:23;;;;;;;5.63;4.07;;;;;;;;;;5034584;28;20182;-66
2022/07/19 00:41:49;;;;;;;5.77;3.67;;;;;;;;;;5035112;28;20253;-66
2022/07/19 00:44:15;;;;;;;6.80;3.80;;;;;;;;;;5034274;28;20246;-66
2022/07/19 00:46:41;;;;;;;7.93;3.97;;;;;;;;;;5034360;28;20179;-66
2022/07/19 00:49:07;;;;;;;8.40;3.53;;;;;;;;;;5034344;28;20647;-66
2022/07/19 00:51:39;;;;;;;7.17;4.10;;;;;;;;;;5034293;28;20198;-66
2022/07/19 00:54:06;;;;;;;8.23;4.50;;;;;;;;;;5032969;28;20199;-66
2022/07/19 00:56:33;;;;;;;5.30;4.10;;;;;;;;;;5034164;28;20245;-66
2022/07/19 00:59:00;;;;;;;7.23;4.10;;;;;;;;;;5034162;28;20175;-66
2022/07/19 01:01:26;;;;;;;6.33;4.23;;;;;;;;;;5033169;28;20210;-66
2022/07/19 01:03:53;;;;;;;6.73;3.93;;;;;;;;;;5033989;28;20195;-66
2022/07/19 01:06:18;;;;;;;7.17;4.03;;;;;;;;;;5034014;28;20603;-66
2022/07/19 01:08:44;;;;;;;7.00;3.90;;;;;;;;;;5034464;28;20325;-66
2022/07/19 02:49:55;;;;;;;7.53;4.33;;;;;;;;;;5039424;28;20201;-67
2022/07/19 02:52:21;;;;;;;10.23;4.30;;;;;;;;;;5038246;28;20278;-68
2022/07/19 02:54:47;;;;;;;9.13;4.30;;;;;;;;;;5039841;28;20298;-67
2022/07/19 02:57:13;;;;;;;5.43;3.90;;;;;;;;;;5039350;28;20175;-67
2022/07/19 02:59:39;;;;;;;8.73;4.17;;;;;;;;;;5039311;28;20178;-67
2022/07/19 03:02:04;;;;;;;7.63;4.10;;;;;;;;;;5040028;28;20186;-67
2022/07/19 03:04:30;;;;;;;5.20;4.53;;;;;;;;;;5038162;28;20203;-67
2022/07/19 03:06:57;;;;;;;5.53;4.27;;;;;;;;;;5039733;28;20206;-67
2022/07/19 03:09:23;;;;;;;9.73;4.23;;;;;;;;;;5039069;28;20238;-67
2022/07/19 03:11:49;;;;;;;7.40;3.80;;;;;;;;;;5039189;28;20265;-67
2022/07/19 03:14:15;;;;;;;6.17;3.97;;;;;;;;;;5039101;28;20203;-67
2022/07/19 03:16:41;;;;;;;5.90;3.60;;;;;;;;;;5039187;28;20178;-67
2022/07/19 03:19:08;;;;;;;7.10;4.00;;;;;;;;;;5039056;28;20183;-67
2022/07/19 03:21:34;;;;;;;5.33;3.27;;;;;;;;;;5039089;28;20178;-68
2022/07/19 03:24:00;;;;;;;9.97;4.40;;;;;;;;;;5037795;28;20206;-67
2022/07/19 03:26:26;;;;;;;7.33;4.27;;;;;;;;;;5034297;28;20183;-67
2022/07/19 03:28:52;;;;;;;7.30;3.77;;;;;;;;;;5035918;28;20257;-67
2022/07/19 03:31:18;;;;;;;12.67;4.23;;;;;;;;;;5036350;28;20175;-67
2022/07/19 03:33:44;;;;;;;6.37;3.93;;;;;;;;;;5036100;28;20195;-67
2022/07/19 03:36:10;;;;;;;5.07;4.10;;;;;;;;;;5035766;28;20198;-67
2022/07/19 03:38:36;;;;;;;6.27;3.97;;;;;;;;;;5036263;28;20175;-67
2022/07/19 03:41:02;;;;;;;6.73;4.20;;;;;;;;;;5035960;28;20183;-67
2022/07/19 03:43:28;;;;;;;8.13;4.33;;;;;;;;;;5035439;28;20214;-67
2022/07/19 03:45:54;;;;;;;8.07;4.03;;;;;;;;;;5034275;28;20190;-68
2022/07/19 03:48:21;;;;;;;7.83;3.87;;;;;;;;;;5034151;28;20306;-67
2022/07/19 03:50:47;;;;;;;5.90;3.70;;;;;;;;;;5035488;28;20229;-67
2022/07/19 03:53:13;;;;;;;7.90;4.00;;;;;;;;;;5035636;28;20194;-67
2022/07/19 03:55:39;;;;;;;7.60;5.30;;;;;;;;;;5035436;28;20203;-67
2022/07/19 03:58:05;;;;;;;5.40;3.73;;;;;;;;;;5035315;28;20183;-67
2022/07/19 04:00:31;;;;;;;5.30;3.93;;;;;;;;;;5035354;28;20662;-67
2022/07/19 04:02:57;;;;;;;7.20;4.10;;;;;;;;;;5034060;28;20199;-67
2022/07/19 04:05:23;;;;;;;7.67;4.07;;;;;;;;;;5033955;28;20175;-67
2022/07/19 04:07:49;;;;;;;7.83;3.87;;;;;;;;;;5034044;28;20179;-67
2022/07/19 04:10:15;;;;;;;7.80;3.80;;;;;;;;;;5035817;28;20199;-67
2022/07/19 04:12:41;;;;;;;7.63;4.40;;;;;;;;;;5035280;28;20179;-67
2022/07/19 04:15:08;;;;;;;6.60;4.47;;;;;;;;;;5035065;28;20228;-68
2022/07/19 04:17:34;;;;;;;7.03;4.07;;;;;;;;;;5035242;28;20186;-67
2022/07/19 04:20:00;;;;;;;7.20;3.83;;;;;;;;;;5034923;28;20183;-67
2022/07/19 04:22:26;;;;;;;6.13;3.90;;;;;;;;;;5035094;28;20179;-67
2022/07/19 04:24:52;;;;;;;7.43;4.37;;;;;;;;;;5033666;28;20183;-67
2022/07/19 04:27:18;;;;;;;9.23;4.00;;;;;;;;;;5035357;28;20179;-67
2022/07/19 04:29:44;;;;;;;9.77;4.10;;;;;;;;;;5034833;28;20272;-67
2022/07/19 04:32:10;;;;;;;6.47;4.13;;;;;;;;;;5034931;28;20687;-67
2022/07/19 04:34:35;;;;;;;7.23;4.03;;;;;;;;;;5034742;28;20266;-67
2022/07/19 04:37:01;;;;;;;6.13;4.23;;;;;;;;;;5035099;28;20578;-67
2022/07/19 04:39:27;;;;;;;8.03;3.97;;;;;;;;;;5034725;28;20665;-67
2022/07/19 04:41:53;;;;;;;7.13;4.20;;;;;;;;;;5035090;28;20624;-67
2022/07/19 04:44:19;;;;;;;6.63;4.27;;;;;;;;;;5034267;28;20218;-67
2022/07/19 04:46:45;;;;;;;7.47;4.57;;;;;;;;;;5033115;28;20185;-67
2022/07/19 04:49:11;;;;;;;6.03;4.27;;;;;;;;;;5034279;28;20199;-68
2022/07/19 04:51:37;;;;;;;6.83;4.43;;;;;;;;;;5034340;28;20176;-67
2022/07/19 04:54:03;;;;;;;6.30;4.27;;;;;;;;;;5034237;28;20195;-67
2022/07/19 04:56:29;;;;;;;14.03;4.40;;;;;;;;;;5034289;28;20175;-68
2022/07/19 04:58:55;;;;;;;7.97;3.90;;;;;;;;;;5034255;28;20183;-67
2022/07/19 05:01:21;;;;;;;7.17;4.47;;;;;;;;;;5034150;28;20183;-67
2022/07/19 05:03:47;;;;;;;8.60;4.47;;;;;;;;;;5034016;28;20281;-67
2022/07/19 05:06:13;;;;;;;9.63;4.90;;;;;;;;;;5034649;28;20175;-67
2022/07/19 05:08:39;;;;;;;10.27;5.00;;;;;;;;;;5033966;28;20207;-67
2022/07/19 05:11:05;;;;;;;12.00;4.60;;;;;;;;;;5034253;28;20182;-67
2022/07/19 05:13:31;;;;;;;10.07;4.90;;;;;;;;;;5034055;28;20198;-67
2022/07/19 05:15:57;;;;;;;6.17;4.30;;;;;;;;;;5033815;28;20186;-67
2022/07/19 05:18:23;;;;;;;7.70;4.67;;;;;;;;;;5032547;28;20183;-67
2022/07/19 05:20:49;;;;;;;;;;;;;;;;;;5034181;28;20080;-67
2022/07/19 05:23:15;;;;;;;;;;;;;;;;;;5034277;28;19913;-67
2022/07/19 05:25:41;;;;;;;6.60;4.50;;;;;;;;;;5033634;28;20187;-67
2022/07/19 05:28:08;;;;;;;6.95;4.50;;;;;;;;;;5031117;28;20415;-67
2022/07/19 05:30:34;;;;;;;8.30;4.53;;;;;;;;;;5034966;28;20216;-67
2022/07/19 05:33:00;;;;;;;8.07;4.88;;;;;;;;;;5031191;28;20989;-67
2022/07/19 05:35:26;;;;;;;9.55;4.80;;;;;;;;;;5032354;28;20390;-67
2022/07/19 05:37:52;;;;;;;12.30;4.67;;;;;;;;;;5033774;28;20182;-68
2022/07/19 05:40:18;;;;;;;10.00;4.53;;;;;;;;;;5033500;28;20185;-67
2022/07/19 05:42:43;;;;;;;10.63;5.20;;;;;;;;;;5033146;28;20203;-67
2022/07/19 05:45:10;;;;;;;7.27;5.20;;;;;;;;;;5033657;28;20217;-68
2022/07/19 05:47:36;;;;;;;15.97;5.27;;;;;;;;;;5032798;28;20183;-67
2022/07/19 05:50:02;;;;;;;16.17;5.73;;;;;;;;;;5031929;28;20621;-67
2022/07/19 05:52:28;;;;;;;15.03;4.80;;;;;;;;;;5033222;28;20209;-67
2022/07/19 05:54:54;;;;;;;11.27;4.87;;;;;;;;;;5031982;28;20557;-68
2022/07/19 05:57:20;;;;;;;14.00;5.83;;;;;;;;;;5033540;28;20570;-67
2022/07/19 05:59:46;;;;;;;14.57;5.20;;;;;;;;;;5033304;28;20241;-67
2022/07/19 06:02:11;;;;;;;9.10;4.57;;;;;;;;;;5031943;28;20215;-67
2022/07/19 06:04:37;;;;;;;14.40;4.60;;;;;;;;;;5033177;28;20214;-67
2022/07/19 06:07:03;;;;;;;10.97;4.70;;;;;;;;;;5033382;28;20179;-66
2022/07/19 06:09:29;;;;;;;10.50;4.83;;;;;;;;;;5032914;28;20601;-67
2022/07/19 06:11:55;;;;;;;13.73;4.93;;;;;;;;;;5031824;28;20208;-67
2022/07/19 06:14:21;;;;;;;10.13;5.13;;;;;;;;;;5031829;28;20752;-67
2022/07/19 06:16:47;;;;;;;11.60;4.63;;;;;;;;;;5031684;28;20183;-67
2022/07/19 06:19:13;;;;;;;11.67;5.07;;;;;;;;;;5033032;28;20290;-67
2022/07/19 06:21:39;;;;;;;13.40;5.20;;;;;;;;;;5032748;28;20959;-67
2022/07/19 06:24:05;;;;;;;10.20;4.60;;;;;;;;;;5032952;28;20205;-67
2022/07/19 06:26:31;;;;;;;12.57;5.03;;;;;;;;;;5033470;28;20187;-67
2022/07/19 06:28:57;;;;;;;10.03;5.07;;;;;;;;;;5032924;28;20577;-67
2022/07/19 06:31:23;;;;;;;10.73;4.43;;;;;;;;;;5033349;28;20606;-67
2022/07/19 06:33:50;;;;;;;14.23;4.60;;;;;;;;;;5032894;28;20191;-67
2022/07/19 06:36:17;;;;;;;8.63;3.60;;;;;;;;;;5032844;28;20761;-68
2022/07/19 06:38:43;;;;;;;7.93;4.23;;;;;;;;;;5031625;28;20317;-67
2022/07/19 06:41:10;;;;;;;10.00;3.40;;;;;;;;;;5033149;28;20648;-67
2022/07/19 06:43:36;;;;;;;14.47;3.73;;;;;;;;;;5031359;28;20219;-67
2022/07/19 06:46:02;;;;;;;6.40;3.50;;;;;;;;;;5033052;28;20232;-68
2022/07/19 06:48:28;;;;;;;7.60;3.83;;;;;;;;;;5032706;28;20206;-67
2022/07/19 06:50:54;;;;;;;8.07;3.30;;;;;;;;;;5033287;28;20176;-67
2022/07/19 06:53:20;;;;;;;7.60;3.27;;;;;;;;;;5032508;28;20203;-67
2022/07/19 06:55:46;;;;;;;5.80;3.33;;;;;;;;;;5031407;28;20189;-67
2022/07/19 06:58:12;;;;;;;5.33;2.80;;;;;;;;;;5032416;28;20215;-67
2022/07/19 07:00:38;;;;;;;9.73;3.43;;;;;;;;;;5034571;28;20179;-68
2022/07/19 07:03:04;;;;;;;5.70;2.83;;;;;;;;;;5036314;28;20281;-67
2022/07/19 07:05:30;;;;;;;11.20;2.60;;;;;;;;;;5036267;28;20187;-67
2022/07/19 07:07:56;;;;;;;5.93;2.90;;;;;;;;;;5036230;28;20175;-67
2022/07/19 07:10:22;;;;;;;7.13;3.50;;;;;;;;;;5036682;28;20715;-67
2022/07/19 07:12:49;;;;;;;5.07;2.80;;;;;;;;;;5034804;28;20290;-67
2022/07/19 07:15:15;;;;;;;4.57;3.20;;;;;;;;;;5034838;28;20178;-67
2022/07/19 07:17:41;;;;;;;6.90;2.73;;;;;;;;;;5036051;28;20184;-67
2022/07/19 07:20:07;;;;;;;4.07;3.33;;;;;;;;;;5035960;28;20187;-67
2022/07/19 07:22:34;;;;;;;7.20;2.70;;;;;;;;;;5035946;28;20280;-67
2022/07/19 07:25:00;;;;;;;6.47;2.90;;;;;;;;;;5036023;28;20175;-67
2022/07/19 07:27:26;;;;;;;4.07;2.80;;;;;;;;;;5034667;28;20187;-68
2022/07/19 07:29:52;;;;;;;3.83;2.50;;;;;;;;;;5035778;28;20280;-67
2022/07/19 07:32:18;;;;;;;7.90;3.07;;;;;;;;;;5035823;28;20179;-67
2022/07/19 07:34:44;;;;;;;8.33;2.93;;;;;;;;;;5035707;28;20726;-67
2022/07/19 07:37:10;;;;;;;4.17;2.70;;;;;;;;;;5034429;28;20183;-67
2022/07/19 07:39:37;;;;;;;4.97;2.70;;;;;;;;;;5035593;28;20530;-67
2022/07/19 07:42:04;;;;;;;3.90;2.50;;;;;;;;;;5034465;28;20189;-67
2022/07/19 07:44:30;;;;;;;5.47;2.70;;;;;;;;;;5035456;28;20237;-67
2022/07/19 07:46:56;;;;;;;7.37;2.70;;;;;;;;;;5035887;28;20600;-67
2022/07/19 07:49:22;;;;;;;6.20;2.63;;;;;;;;;;5034220;28;20662;-67
2022/07/19 07:51:48;;;;;;;3.20;2.90;;;;;;;;;;5034255;28;20190;-67
2022/07/19 07:54:14;;;;;;;5.60;2.60;;;;;;;;;;5035480;28;20591;-67
2022/07/19 07:56:40;;;;;;;4.30;2.50;;;;;;;;;;5035666;28;20256;-67
2022/07/19 07:59:06;;;;;;;3.13;2.50;;;;;;;;;;5034235;28;20194;-67
2022/07/19 08:01:32;;;;;;;3.37;2.70;;;;;;;;;;5034051;28;20215;-67
2022/07/19 08:03:58;;;;;;;4.80;2.60;;;;;;;;;;5035203;28;20207;-67
2022/07/19 08:06:24;;;;;;;4.23;2.37;;;;;;;;;;5035155;28;20210;-66
2022/07/19 08:08:50;;;;;;;5.00;2.40;;;;;;;;;;5035144;28;20202;-66
2022/07/19 08:11:16;;;;;;;5.63;2.70;;;;;;;;;;5035250;28;20533;-66
2022/07/19 08:13:42;;;;;;;5.10;2.40;;;;;;;;;;5033742;28;20199;-66
2022/07/19 08:16:08;;;;;;;4.33;2.43;;;;;;;;;;5033924;28;20175;-66
2022/07/19 08:18:34;;;;;;;6.50;2.67;;;;;;;;;;5033712;28;20179;-66
2022/07/19 08:21:00;;;;;;;2.80;2.60;;;;;;;;;;5033629;28;20314;-66
2022/07/19 08:23:26;;;;;;;5.37;2.50;;;;;;;;;;5034917;28;20203;-67
2022/07/19 08:25:52;;;;;;;6.73;2.77;;;;;;;;;;5033559;28;20679;-68
2022/07/19 08:28:18;;;;;;;6.30;3.20;;;;;;;;;;5032320;28;20383;-68
2022/07/19 08:30:44;;;;;;;5.43;3.33;;;;;;;;;;5035252;28;20675;-68
2022/07/19 08:33:10;;;;;;;3.80;2.97;;;;;;;;;;5034560;28;20576;-68
2022/07/19 08:35:36;;;;;;;5.23;2.87;;;;;;;;;;5034846;28;20175;-68
2022/07/19 08:38:02;;;;;;;8.00;3.03;;;;;;;;;;5033311;28;20186;-68
2022/07/19 08:40:28;;;;;;;6.10;2.77;;;;;;;;;;5035105;28;20186;-68
2022/07/19 08:42:56;;;;;;;6.37;3.43;;;;;;;;;;5034356;28;20706;-67
2022/07/19 08:45:23;;;;;;;5.15;2.88;;;;;;;;;;5033154;28;20194;-68
2022/07/19 08:47:49;;;;;;;4.18;3.10;;;;;;;;;;5034640;28;20179;-68
2022/07/19 08:50:15;;;;;;;9.52;3.25;;;;;;;;;;5033144;28;20818;-68
2022/07/19 08:52:41;;;;;;;5.38;3.03;;;;;;;;;;5033131;28;20967;-68
2022/07/19 08:55:07;;;;;;;4.47;3.20;;;;;;;;;;5033133;28;20179;-68
2022/07/19 09:00:18;;;;;;;4.43;3.28;;;;;;;;;;5034550;28;20256;-68
2022/07/19 09:03:01;;;;;;;5.38;3.03;;;;;;;;;;5034397;28;20206;-68
2022/07/19 09:05:27;;;;;;;6.78;3.55;;;;;;;;;;5032835;28;20651;-68
2022/07/19 09:08:10;;;;;;;14.18;4.05;;;;;;;;;;5033997;28;20229;-68
2022/07/19 09:10:38;;;;;;;6.47;4.13;;;;;;;;;;5033945;28;20680;-68
2022/07/19 09:13:15;;;;;;;6.93;3.65;;;;;;;;;;5032583;28;20203;-68
2022/07/19 09:15:49;;;;;;;5.72;3.85;;;;;;;;;;5032523;28;20209;-68
2022/07/19 09:18:15;;;;;;;6.05;3.53;;;;;;;;;;5034114;28;20194;-68
2022/07/19 09:20:43;;;;;;;7.45;4.75;;;;;;;;;;5033778;28;20199;-68
2022/07/19 09:23:09;;;;;;;7.30;3.70;;;;;;;;;;5033701;28;20225;-68
2022/07/19 09:25:36;;;;;;;6.50;3.63;;;;;;;;;;5033714;28;20171;-68
2022/07/19 09:28:02;;;;;;;10.23;4.30;;;;;;;;;;5033668;28;20594;-68
2022/07/19 09:30:32;;;;;;;5.80;4.25;;;;;;;;;;5033811;28;20206;-68
2022/07/19 09:33:06;;;;;;;8.75;4.05;;;;;;;;;;5033570;28;20202;-68
2022/07/19 09:35:41;;;;;;;8.50;3.90;;;;;;;;;;5032234;28;20612;-68
2022/07/19 09:38:30;;;;;;;12.32;4.38;;;;;;;;;;5032179;28;20175;-68
2022/07/19 09:41:16;;;;;;;4.53;4.05;;;;;;;;;;5028225;28;20274;-68
2022/07/19 09:43:58;;;;;;;7.03;4.32;;;;;;;;;;5033227;28;20207;-68
2022/07/19 09:46:28;;;;;;;9.75;4.22;;;;;;;;;;5033446;28;20171;-69
2022/07/19 09:48:54;;;;;;;6.18;3.80;;;;;;;;;;5033438;28;20199;-68
2022/07/19 09:51:21;;;;;;;7.32;4.18;;;;;;;;;;5033354;28;20175;-68
2022/07/19 09:53:48;;;;;;;10.13;4.28;;;;;;;;;;5033317;28;20254;-69
2022/07/19 09:56:14;;;;;;;6.10;3.80;;;;;;;;;;5032032;28;20171;-69
2022/07/19 09:58:41;;;;;;;6.85;4.10;;;;;;;;;;5033069;28;20585;-68
2022/07/19 10:01:09;;;;;;;5.47;3.60;;;;;;;;;;5031925;28;20179;-69
2022/07/19 10:03:35;;;;;;;8.25;5.18;;;;;;;;;;5031654;28;20195;-68
2022/07/19 10:06:01;;;;;;;5.20;3.80;;;;;;;;;;5033138;28;20175;-68
2022/07/19 10:08:27;;;;;;;4.20;3.78;;;;;;;;;;5031838;28;20626;-68
2022/07/19 10:10:53;;;;;;;8.10;4.05;;;;;;;;;;5032985;28;20250;-68
2022/07/19 10:13:19;;;;;;;7.10;4.43;;;;;;;;;;5033026;28;20232;-68
2022/07/19 10:15:47;;;;;;;10.80;4.18;;;;;;;;;;5033270;28;20182;-69
2022/07/19 10:18:20;;;;;;;6.53;3.90;;;;;;;;;;5033044;28;20190;-68
2022/07/19 10:20:47;;;;;;;7.57;4.35;;;;;;;;;;5031907;28;20591;-69
2022/07/19 10:23:13;;;;;;;6.25;3.65;;;;;;;;;;5033273;28;20183;-69
2022/07/19 10:25:43;;;;;;;7.47;3.95;;;;;;;;;;5032937;28;20179;-69
2022/07/19 10:28:28;;;;;;;8.48;3.70;;;;;;;;;;5033119;28;20179;-69
2022/07/19 10:30:55;;;;;;;4.82;3.17;;;;;;;;;;5032862;28;20207;-68
2022/07/19 10:33:26;;;;;;;5.20;4.10;;;;;;;;;;5032841;28;20285;-69
2022/07/19 10:35:52;;;;;;;4.05;3.60;;;;;;;;;;5035532;28;20186;-68
2022/07/19 10:38:18;;;;;;;5.10;3.53;;;;;;;;;;5036745;28;20179;-69
2022/07/19 10:40:46;;;;;;;5.45;3.78;;;;;;;;;;5037082;28;20197;-68
2022/07/19 10:43:20;;;;;;;7.38;3.40;;;;;;;;;;5036491;28;20215;-68
2022/07/19 10:46:01;;;;;;;5.85;3.47;;;;;;;;;;5036677;28;20205;-68
2022/07/19 10:48:39;;;;;;;3.83;2.75;;;;;;;;;;5036511;28;20183;-68
2022/07/19 10:51:06;;;;;;;3.38;3.00;;;;;;;;;;5036533;28;20202;-68
2022/07/19 10:53:41;;;;;;;5.50;3.78;;;;;;;;;;5036526;28;20218;-68
2022/07/19 10:56:13;;;;;;;6.05;3.80;;;;;;;;;;5036745;28;20229;-68
2022/07/19 10:58:49;;;;;;;4.53;3.58;;;;;;;;;;5035721;28;20179;-67
2022/07/19 11:01:17;;;;;;;4.60;3.53;;;;;;;;;;5036406;28;20201;-68
2022/07/19 11:03:43;;;;;;;4.50;3.50;;;;;;;;;;5036167;28;20671;-68
2022/07/19 11:06:09;;;;;;;7.25;3.65;;;;;;;;;;5036353;28;20183;-68
2022/07/19 11:08:41;;;;;;;5.10;3.20;;;;;;;;;;5036367;28;20187;-67
2022/07/19 11:11:08;;;;;;;4.97;3.10;;;;;;;;;;5036399;28;20171;-68
2022/07/19 11:13:35;;;;;;;5.45;3.67;;;;;;;;;;5036472;28;20244;-68
2022/07/19 11:16:02;;;;;;;3.72;3.38;;;;;;;;;;5035010;28;20183;-68
2022/07/19 11:18:28;;;;;;;3.30;3.00;;;;;;;;;;5036082;28;20167;-68
2022/07/19 11:20:57;;;;;;;4.55;3.47;;;;;;;;;;5036420;28;20182;-66
2022/07/19 11:23:23;;;;;;;3.40;3.10;;;;;;;;;;5036047;28;20226;-67
2022/07/19 11:25:52;;;;;;;3.83;3.05;;;;;;;;;;5036488;28;20174;-68
2022/07/19 11:28:24;;;;;;;3.92;2.80;;;;;;;;;;5034636;28;20175;-68
2022/07/19 11:30:51;;;;;;;4.63;2.92;;;;;;;;;;5035926;28;20233;-68
2022/07/19 11:33:17;;;;;;;4.07;2.63;;;;;;;;;;5036151;28;20213;-68
2022/07/19 11:36:00;;;;;;;4.15;2.78;;;;;;;;;;5035782;28;20182;-68
2022/07/19 11:38:46;;;;;;;3.72;2.83;;;;;;;;;;5036082;28;20175;-68
2022/07/19 11:41:14;;;;;;;3.78;2.70;;;;;;;;;;5035788;28;20655;-67
2022/07/19 11:43:41;;;;;;;3.70;2.78;;;;;;;;;;5034298;28;20560;-68
2022/07/19 11:46:07;;;;;;;2.88;2.65;;;;;;;;;;5035221;28;20245;-68
2022/07/19 11:48:33;;;;;;;3.78;3.17;;;;;;;;;;5036002;28;20635;-68
2022/07/19 11:50:59;;;;;;;6.57;2.95;;;;;;;;;;5035830;28;20171;-68
2022/07/19 11:53:25;;;;;;;3.00;2.70;;;;;;;;;;5090135;22;20226;-70
2022/07/19 11:55:51;;;;;;;3.17;2.88;;;;;;;;;;5055733;28;20542;-68
2022/07/19 11:58:17;;;;;;;4.70;2.75;;;;;;;;;;5038039;28;20170;-67
2022/07/19 12:00:44;;;;;;;3.13;2.67;;;;;;;;;;5055334;28;20179;-70
2022/07/19 12:03:14;;;;;;;2.97;2.78;;;;;;;;;;5055372;28;20193;-68
2022/07/19 12:05:40;;;;;;;5.28;3.15;;;;;;;;;;5055421;28;20175;-68
2022/07/19 12:08:09;;;;;;;3.97;3.60;;;;;;;;;;5037486;28;20181;-68
2022/07/19 12:10:36;;;;;;;3.85;3.47;;;;;;;;;;5055818;28;20640;-69
2022/07/19 12:13:03;;;;;;;3.38;2.70;;;;;;;;;;5037602;28;20198;-67
2022/07/19 12:15:48;;;;;;;5.85;3.10;;;;;;;;;;5055653;28;20174;-70
2022/07/19 12:18:16;;;;;;;5.47;4.10;;;;;;;;;;5037401;28;20180;-67
2022/07/19 12:20:42;;;;;;;4.70;3.80;;;;;;;;;;5055735;28;20175;-68
2022/07/19 12:23:12;;;;;;;3.63;2.80;;;;;;;;;;5055190;28;20297;-68
2022/07/19 12:25:38;;;;;;;3.17;2.75;;;;;;;;;;5055122;28;20175;-68
2022/07/19 12:28:04;;;;;;;9.27;2.95;;;;;;;;;;5037669;28;20178;-68
2022/07/19 12:30:30;;;;;;;5.32;3.63;;;;;;;;;;5054878;28;20264;-68
2022/07/19 12:33:13;;;;;;;4.90;3.35;;;;;;;;;;5055029;28;20198;-69
2022/07/19 12:35:46;;;;;;;2.95;2.65;;;;;;;;;;5054850;28;20174;-67
2022/07/19 12:38:13;;;;;;;3.97;2.83;;;;;;;;;;5054667;28;20189;-68
2022/07/19 12:40:40;;;;;;;4.72;4.13;;;;;;;;;;5055106;28;20178;-68
2022/07/19 12:43:06;;;;;;;4.45;3.63;;;;;;;;;;5054847;28;20198;-67
2022/07/19 12:45:41;;;;;;;5.20;4.53;;;;;;;;;;5036860;28;20620;-68
2022/07/19 12:48:08;;;;;;;7.80;3.80;;;;;;;;;;5054734;28;20296;-67
2022/07/19 12:50:35;;;;;;;4.20;3.47;;;;;;;;;;5036318;28;20644;-68
2022/07/19 12:53:02;;;;;;;2.92;2.72;;;;;;;;;;5036583;28;20260;-68
2022/07/19 12:55:28;;;;;;;3.00;2.80;;;;;;;;;;5054153;28;20213;-68
2022/07/19 12:57:55;;;;;;;6.53;3.30;;;;;;;;;;5036186;28;20171;-68
2022/07/19 13:00:23;;;;;;;3.70;3.40;;;;;;;;;;5036363;28;20182;-68
2022/07/19 13:02:50;;;;;;;5.22;3.38;;;;;;;;;;5053936;28;20198;-68
2022/07/19 13:05:16;;;;;;;4.75;3.50;;;;;;;;;;5036222;28;20178;-68
2022/07/19 13:07:42;;;;;;;4.78;3.15;;;;;;;;;;5054008;28;20260;-68
2022/07/19 13:10:08;;;;;;;4.10;3.45;;;;;;;;;;5053889;28;20275;-68
2022/07/19 13:12:35;;;;;;;5.18;2.78;;;;;;;;;;5036154;28;20248;-68
2022/07/19 13:15:01;;;;;;;3.28;2.90;;;;;;;;;;5036216;28;20201;-67
2022/07/19 13:17:27;;;;;;;6.63;4.72;;;;;;;;;;5053885;28;20292;-67
2022/07/19 13:19:53;;;;;;;8.15;3.83;;;;;;;;;;5036098;28;20612;-68
2022/07/19 13:22:19;;;;;;;4.22;3.10;;;;;;;;;;5054009;28;20252;-68
2022/07/19 13:24:45;;;;;;;5.82;3.30;;;;;;;;;;5053795;28;20175;-67
2022/07/19 13:27:11;;;;;;;5.13;4.07;;;;;;;;;;5036031;28;20232;-67
2022/07/19 13:29:38;;;;;;;7.63;3.28;;;;;;;;;;5053701;28;20315;-68
2022/07/19 13:32:04;;;;;;;4.35;2.90;;;;;;;;;;5053641;28;20166;-68
2022/07/19 13:34:31;;;;;;;4.57;3.40;;;;;;;;;;5035689;28;20556;-68
2022/07/19 13:36:56;;;;;;;6.55;4.72;;;;;;;;;;5053533;28;20173;-68
2022/07/19 13:39:23;;;;;;;6.13;3.65;;;;;;;;;;5035588;28;20175;-68
2022/07/19 13:41:50;;;;;;;7.32;3.40;;;;;;;;;;5035560;28;20170;-68
2022/07/19 13:44:16;;;;;;;5.30;3.58;;;;;;;;;;5053202;28;20690;-68
2022/07/19 13:46:42;;;;;;;4.10;3.80;;;;;;;;;;5053555;28;20183;-68
2022/07/19 13:49:08;;;;;;;8.30;4.68;;;;;;;;;;5053285;28;20202;-68
2022/07/19 13:51:34;;;;;;;5.68;3.40;;;;;;;;;;5035617;28;20174;-68
2022/07/19 13:54:00;;;;;;;3.63;3.35;;;;;;;;;;5053205;28;20213;-69
2022/07/19 13:56:26;;;;;;;5.55;3.22;;;;;;;;;;5053492;28;20206;-68
2022/07/19 13:58:52;;;;;;;7.55;3.20;;;;;;;;;;5035463;28;20186;-68
2022/07/19 14:01:19;;;;;;;3.55;3.25;;;;;;;;;;5053564;28;20200;-68
2022/07/19 14:03:46;;;;;;;3.45;3.10;;;;;;;;;;5053311;28;20194;-69
2022/07/19 14:06:12;;;;;;;4.25;3.85;;;;;;;;;;5053392;28;20706;-68
2022/07/19 14:08:38;;;;;;;3.50;3.20;;;;;;;;;;5052720;28;20217;-68
2022/07/19 14:11:04;;;;;;;5.00;3.78;;;;;;;;;;5053124;28;20637;-68
2022/07/19 14:13:30;;;;;;;6.63;4.40;;;;;;;;;;5053069;28;20202;-68
2022/07/19 14:15:56;;;;;;;7.38;3.90;;;;;;;;;;5053044;28;20638;-68
2022/07/19 14:18:22;;;;;;;4.50;3.58;;;;;;;;;;5052986;28;20194;-69
2022/07/19 14:20:48;;;;;;;4.45;4.07;;;;;;;;;;5035142;28;20244;-68
2022/07/19 14:23:15;;;;;;;4.03;3.72;;;;;;;;;;5053068;28;20203;-68
2022/07/19 14:25:41;;;;;;;8.30;3.60;;;;;;;;;;5053546;28;20174;-68
2022/07/19 14:28:07;;;;;;;5.07;3.92;;;;;;;;;;5034997;28;20182;-68
2022/07/19 14:30:34;;;;;;;5.28;3.15;;;;;;;;;;5053044;28;20198;-68
2022/07/19 14:33:00;;;;;;;4.10;3.50;;;;;;;;;;5053219;28;20190;-68
2022/07/19 14:35:26;;;;;;;5.88;3.22;;;;;;;;;;5052942;28;20181;-68
2022/07/19 14:37:52;;;;;;;6.78;4.38;;;;;;;;;;5035032;28;20273;-68
2022/07/19 14:40:18;;;;;;;4.60;3.80;;;;;;;;;;5052831;28;20179;-68
2022/07/19 14:42:44;;;;;;;3.78;3.47;;;;;;;;;;5052942;28;20200;-68
2022/07/19 14:45:11;;;;;;;4.80;3.58;;;;;;;;;;5034999;28;20178;-68
2022/07/19 14:47:37;;;;;;;4.82;3.90;;;;;;;;;;5053084;28;20186;-68
2022/07/19 14:50:04;;;;;;;4.82;3.85;;;;;;;;;;5034891;28;20700;-69
2022/07/19 14:52:30;;;;;;;5.30;3.30;;;;;;;;;;5052695;28;20218;-69
2022/07/19 14:54:56;;;;;;;4.35;3.80;;;;;;;;;;5035091;28;20553;-69
2022/07/19 14:57:23;;;;;;;5.22;3.28;;;;;;;;;;5052792;28;20175;-69
2022/07/19 14:59:49;;;;;;;3.53;3.22;;;;;;;;;;5052678;28;20206;-69
2022/07/19 15:02:15;;;;;;;5.45;3.60;;;;;;;;;;5053547;28;20642;-67
2022/07/19 15:04:41;;;;;;;3.85;3.55;;;;;;;;;;5052754;28;20170;-69
2022/07/19 15:07:07;;;;;;;4.22;3.83;;;;;;;;;;5052579;28;20539;-69
2022/07/19 15:09:34;;;;;;;3.90;3.47;;;;;;;;;;5052605;28;20634;-69
2022/07/19 15:12:00;;;;;;;6.93;3.70;;;;;;;;;;5052924;28;20174;-69
2022/07/19 15:14:29;;;;;;;4.45;3.65;;;;;;;;;;5052600;28;20649;-69
2022/07/19 15:16:59;;;;;;;4.90;3.80;;;;;;;;;;5052756;28;20174;-70
2022/07/19 15:19:25;;;;;;;6.20;2.95;;;;;;;;;;5052711;28;20186;-67
2022/07/19 15:21:51;;;;;;;6.10;3.33;;;;;;;;;;5055052;28;20222;-68
2022/07/19 15:24:18;;;;;;;6.47;3.25;;;;;;;;;;5056144;28;20289;-68
2022/07/19 15:26:44;;;;;;;7.53;4.15;;;;;;;;;;5056200;28;20612;-69
2022/07/19 15:29:10;;;;;;;6.50;3.50;;;;;;;;;;5038048;28;20297;-69
2022/07/19 15:31:36;;;;;;;5.97;3.72;;;;;;;;;;5056230;28;20178;-68
2022/07/19 15:34:02;;;;;;;5.95;3.58;;;;;;;;;;5056043;28;20198;-69
2022/07/19 15:36:28;;;;;;;8.82;4.10;;;;;;;;;;5056307;28;20178;-69
2022/07/19 15:38:54;;;;;;;6.38;4.55;;;;;;;;;;5056107;28;20303;-68
2022/07/19 15:41:20;;;;;;;4.20;3.67;;;;;;;;;;5055897;28;20178;-69
2022/07/19 15:43:46;;;;;;;5.60;3.83;;;;;;;;;;5056040;28;20233;-69
2022/07/19 15:46:12;;;;;;;5.28;4.32;;;;;;;;;;5038173;28;20182;-68
2022/07/19 15:48:39;;;;;;;6.07;4.15;;;;;;;;;;5055544;28;20178;-69
2022/07/19 15:51:06;;;;;;;3.92;3.40;;;;;;;;;;5055526;28;20193;-69
2022/07/19 15:53:32;;;;;;;3.55;3.35;;;;;;;;;;5055321;28;20260;-69
2022/07/19 15:55:58;;;;;;;3.88;3.58;;;;;;;;;;5055440;28;20206;-69
2022/07/19 15:58:24;;;;;;;4.55;3.50;;;;;;;;;;5055469;28;20546;-69
2022/07/19 16:00:50;;;;;;;5.93;3.83;;;;;;;;;;5037519;28;20236;-69
2022/07/19 16:03:16;;;;;;;4.20;3.10;;;;;;;;;;5037342;28;20209;-69
2022/07/19 16:05:42;;;;;;;3.72;3.33;;;;;;;;;;5037465;28;20182;-69
2022/07/19 16:08:08;;;;;;;3.20;2.90;;;;;;;;;;5037437;28;20182;-69
2022/07/19 16:10:34;;;;;;;8.00;4.13;;;;;;;;;;5037162;28;20244;-69
2022/07/19 16:13:00;;;;;;;6.20;3.45;;;;;;;;;;5055012;28;20674;-69
2022/07/19 16:15:26;;;;;;;4.07;3.53;;;;;;;;;;5037265;28;20688;-68
2022/07/19 16:17:52;;;;;;;5.47;3.50;;;;;;;;;;5037201;28;20181;-69
2022/07/19 16:20:18;;;;;;;5.13;4.55;;;;;;;;;;5055133;28;20573;-69
2022/07/19 16:22:44;;;;;;;3.95;3.50;;;;;;;;;;5054835;28;20198;-68